Time;durP1;ratioP1;P1;durP2;ratioP2;P2;SDS_P1;SDS_P2;PMS_P1;PMS_P2;Temp;Humidity;BMP_temperature;BMP_pressure;BME280_temperature;BME280_humidity;BME280_pressure;Samples;Min_cycle;Max_cycle;Signal;HPM_P1;HPM_P2
2022/03/17 00:00:54;;;;;;;24.70;17.52;;;;;;;;;;5018696;28;20041;-74
2022/03/17 00:03:20;;;;;;;25.02;17.45;;;;;;;;;;5022074;28;20033;-74
2022/03/17 00:05:47;;;;;;;27.33;18.42;;;;;;;;;;5023671;28;20160;-74
2022/03/17 00:08:13;;;;;;;26.33;16.92;;;;;;;;;;5021705;28;20456;-74
2022/03/17 00:10:39;;;;;;;24.60;17.40;;;;;;;;;;5020838;28;20108;-74
2022/03/17 00:13:07;;;;;;;26.15;16.55;;;;;;;;;;5024282;28;20060;-74
2022/03/17 00:15:36;;;;;;;26.15;18.35;;;;;;;;;;5021253;28;20128;-74
2022/03/17 00:18:02;;;;;;;24.95;16.55;;;;;;;;;;5008772;28;20443;-74
2022/03/17 00:20:28;;;;;;;25.95;17.63;;;;;;;;;;5026578;28;20068;-74
2022/03/17 00:22:54;;;;;;;23.98;17.25;;;;;;;;;;5028154;28;20030;-74
2022/03/17 00:25:21;;;;;;;22.48;16.48;;;;;;;;;;5025776;28;20064;-75
2022/03/17 00:27:47;;;;;;;28.83;17.52;;;;;;;;;;5008379;28;20045;-74
2022/03/17 00:30:18;;;;;;;24.77;17.25;;;;;;;;;;5026000;28;20033;-73
2022/03/17 00:32:45;;;;;;;23.73;17.63;;;;;;;;;;5027442;28;20049;-73
2022/03/17 00:37:55;;;;;;;22.33;17.02;;;;;;;;;;5028316;28;20044;-72
2022/03/17 00:40:23;;;;;;;25.73;18.08;;;;;;;;;;5025326;28;20440;-72
2022/03/17 00:42:51;;;;;;;28.98;16.70;;;;;;;;;;5029316;28;20072;-73
2022/03/17 00:45:18;;;;;;;28.13;17.27;;;;;;;;;;5023109;28;20052;-72
2022/03/17 00:47:44;;;;;;;26.40;17.20;;;;;;;;;;5026739;28;20034;-73
2022/03/17 00:50:11;;;;;;;22.55;16.45;;;;;;;;;;5008968;28;20084;-73
2022/03/17 00:52:37;;;;;;;25.30;17.63;;;;;;;;;;5032349;28;20064;-73
2022/03/17 00:55:05;;;;;;;25.95;17.73;;;;;;;;;;5033919;28;20037;-73
2022/03/17 00:57:32;;;;;;;22.40;16.45;;;;;;;;;;5032775;28;20543;-73
2022/03/17 00:59:58;;;;;;;25.40;18.08;;;;;;;;;;5033548;28;20045;-73
2022/03/17 01:02:24;;;;;;;27.70;17.67;;;;;;;;;;5031873;28;20034;-73
2022/03/17 01:04:50;;;;;;;26.02;17.52;;;;;;;;;;5033550;28;20650;-73
2022/03/17 01:07:16;;;;;;;24.67;17.70;;;;;;;;;;5025880;28;20037;-73
2022/03/17 01:09:42;;;;;;;22.98;17.88;;;;;;;;;;5021682;28;20026;-73
2022/03/17 01:12:08;;;;;;;24.60;19.05;;;;;;;;;;5016348;28;20033;-73
2022/03/17 01:14:34;;;;;;;23.83;16.10;;;;;;;;;;5034417;28;20468;-73
2022/03/17 01:17:00;;;;;;;21.48;17.60;;;;;;;;;;5030469;28;20029;-73
2022/03/17 01:19:27;;;;;;;22.25;17.83;;;;;;;;;;5031114;28;20034;-73
2022/03/17 01:21:53;;;;;;;22.98;17.27;;;;;;;;;;5032843;28;20970;-73
2022/03/17 01:24:20;;;;;;;25.25;17.90;;;;;;;;;;5031188;28;20026;-73
2022/03/17 01:26:46;;;;;;;25.58;18.00;;;;;;;;;;4997511;28;20393;-74
2022/03/17 01:29:13;;;;;;;24.45;18.10;;;;;;;;;;5029880;28;20029;-74
2022/03/17 01:31:39;;;;;;;24.90;17.55;;;;;;;;;;5024531;28;20047;-73
2022/03/17 01:34:05;;;;;;;26.15;19.17;;;;;;;;;;5013874;28;20030;-73
2022/03/17 01:36:31;;;;;;;26.52;18.40;;;;;;;;;;5014292;28;20136;-74
2022/03/17 01:38:57;;;;;;;23.55;18.75;;;;;;;;;;5028064;28;20068;-73
2022/03/17 01:41:23;;;;;;;27.45;18.90;;;;;;;;;;5015657;28;20109;-73
2022/03/17 01:43:49;;;;;;;25.50;19.52;;;;;;;;;;5031906;28;20471;-74
2022/03/17 01:46:16;;;;;;;24.00;17.90;;;;;;;;;;5023766;28;20061;-73
2022/03/17 01:48:42;;;;;;;24.67;17.98;;;;;;;;;;5024015;28;20511;-73
2022/03/17 01:51:09;;;;;;;24.83;18.02;;;;;;;;;;5031714;28;20044;-74
2022/03/17 01:53:35;;;;;;;26.00;19.52;;;;;;;;;;5031355;28;20064;-73
2022/03/17 01:56:02;;;;;;;24.02;18.98;;;;;;;;;;5033215;28;20473;-74
2022/03/17 01:58:28;;;;;;;28.17;20.40;;;;;;;;;;5031071;28;20029;-73
2022/03/17 02:00:54;;;;;;;29.85;19.85;;;;;;;;;;5025569;28;20034;-73
2022/03/17 02:03:20;;;;;;;28.52;20.92;;;;;;;;;;5028187;28;20022;-73
2022/03/17 02:05:46;;;;;;;28.80;19.02;;;;;;;;;;5026204;28;20060;-73
2022/03/17 02:08:14;;;;;;;29.02;19.80;;;;;;;;;;5012866;28;20120;-73
2022/03/17 02:13:25;;;;;;;34.17;20.63;;;;;;;;;;5028776;28;20102;-73
2022/03/17 02:15:52;;;;;;;23.38;19.08;;;;;;;;;;5026321;28;20507;-73
2022/03/17 02:18:18;;;;;;;25.05;19.10;;;;;;;;;;5030284;28;20491;-73
2022/03/17 02:20:45;;;;;;;27.92;19.25;;;;;;;;;;5004347;28;20045;-73
2022/03/17 02:25:57;;;;;;;27.23;20.65;;;;;;;;;;5020369;28;20132;-74
2022/03/17 02:28:24;;;;;;;25.52;20.45;;;;;;;;;;5016935;28;20049;-74
2022/03/17 02:30:51;;;;;;;26.05;20.95;;;;;;;;;;5025320;28;20034;-74
2022/03/17 02:33:17;;;;;;;30.85;20.42;;;;;;;;;;5023331;28;20064;-73
2022/03/17 02:35:44;;;;;;;27.60;20.35;;;;;;;;;;5030360;28;20054;-73
2022/03/17 02:38:14;;;;;;;26.60;20.55;;;;;;;;;;5031108;28;20021;-73
2022/03/17 02:40:41;;;;;;;25.77;19.88;;;;;;;;;;5030276;28;20046;-74
2022/03/17 02:43:07;;;;;;;26.48;20.35;;;;;;;;;;5032936;28;20104;-73
2022/03/17 02:45:34;;;;;;;28.25;22.00;;;;;;;;;;5027931;28;20029;-74
2022/03/17 02:48:00;;;;;;;32.42;22.27;;;;;;;;;;5030261;28;20042;-74
2022/03/17 02:50:26;;;;;;;29.23;22.33;;;;;;;;;;5030435;28;20025;-74
2022/03/17 02:52:52;;;;;;;29.75;21.63;;;;;;;;;;5032637;28;20033;-74
2022/03/17 02:55:18;;;;;;;29.73;22.83;;;;;;;;;;5025867;28;20444;-73
2022/03/17 02:57:45;;;;;;;26.38;22.42;;;;;;;;;;5030044;28;20022;-73
2022/03/17 03:00:12;;;;;;;28.73;22.60;;;;;;;;;;5022911;28;20041;-74
2022/03/17 03:02:38;;;;;;;45.42;23.92;;;;;;;;;;5014631;28;20026;-74
2022/03/17 03:05:05;;;;;;;29.95;23.40;;;;;;;;;;5009804;28;20393;-74
2022/03/17 03:07:31;;;;;;;30.63;23.10;;;;;;;;;;5007745;28;20088;-74
2022/03/17 03:09:57;;;;;;;30.27;23.40;;;;;;;;;;5028173;28;20033;-74
2022/03/17 03:12:23;;;;;;;28.95;22.33;;;;;;;;;;5020780;28;20079;-74
2022/03/17 03:14:50;;;;;;;32.55;24.38;;;;;;;;;;5029810;28;20029;-74
2022/03/17 03:17:16;;;;;;;32.03;23.27;;;;;;;;;;5027935;28;20029;-73
2022/03/17 03:19:42;;;;;;;29.20;25.40;;;;;;;;;;5030251;28;20033;-74
2022/03/17 03:22:08;;;;;;;33.80;25.00;;;;;;;;;;5013320;28;20040;-74
2022/03/17 03:24:36;;;;;;;33.55;25.52;;;;;;;;;;5030211;28;20064;-73
2022/03/17 03:27:03;;;;;;;37.00;26.20;;;;;;;;;;5031409;28;20033;-73
2022/03/17 03:29:30;;;;;;;36.20;27.17;;;;;;;;;;5028163;28;20057;-73
2022/03/17 03:31:57;;;;;;;36.92;26.77;;;;;;;;;;5019249;28;20061;-74
2022/03/17 03:34:24;;;;;;;43.42;28.13;;;;;;;;;;5029505;28;20033;-74
2022/03/17 03:39:35;;;;;;;44.15;30.60;;;;;;;;;;5028662;28;20106;-73
2022/03/17 03:42:02;;;;;;;40.90;31.67;;;;;;;;;;5013879;28;20540;-72
2022/03/17 03:44:28;;;;;;;43.33;32.05;;;;;;;;;;5031559;28;20076;-72
2022/03/17 03:46:54;;;;;;;46.90;32.50;;;;;;;;;;5028981;28;20465;-73
2022/03/17 03:49:20;;;;;;;46.20;32.20;;;;;;;;;;5029498;28;20029;-73
2022/03/17 03:51:46;;;;;;;47.90;33.65;;;;;;;;;;5027721;28;20025;-72
2022/03/17 03:54:18;;;;;;;48.15;33.90;;;;;;;;;;5031542;28;20029;-73
2022/03/17 03:56:46;;;;;;;46.38;34.83;;;;;;;;;;5018918;28;20038;-72
2022/03/17 03:59:21;;;;;;;52.00;34.63;;;;;;;;;;5026457;28;20037;-73
2022/03/17 04:01:49;;;;;;;48.92;35.05;;;;;;;;;;5028456;28;20033;-73
2022/03/17 04:04:18;;;;;;;52.10;35.38;;;;;;;;;;5031798;28;20025;-73
2022/03/17 04:06:48;;;;;;;50.63;35.55;;;;;;;;;;5028976;28;20036;-73
2022/03/17 04:09:14;;;;;;;52.45;36.13;;;;;;;;;;5030037;28;20050;-73
2022/03/17 04:11:41;;;;;;;49.70;35.15;;;;;;;;;;5027396;28;20037;-73
2022/03/17 04:14:08;;;;;;;48.13;34.17;;;;;;;;;;5030912;28;20392;-73
2022/03/17 04:16:34;;;;;;;53.72;36.95;;;;;;;;;;5027977;28;20543;-73
2022/03/17 04:19:01;;;;;;;55.20;38.13;;;;;;;;;;5030586;28;20049;-73
2022/03/17 04:21:27;;;;;;;54.90;36.42;;;;;;;;;;5028664;28;20049;-74
2022/03/17 04:23:53;;;;;;;60.53;36.00;;;;;;;;;;5028999;28;20384;-73
2022/03/17 04:26:19;;;;;;;54.55;36.65;;;;;;;;;;5026898;28;20056;-73
2022/03/17 04:28:45;;;;;;;22.70;15.63;;;;;;;;;;5028272;28;20039;-73
2022/03/17 04:31:12;;;;;;;15.68;10.65;;;;;;;;;;5024185;28;20050;-73
2022/03/17 04:33:38;;;;;;;11.48;9.48;;;;;;;;;;5029809;28;20060;-73
2022/03/17 04:36:05;;;;;;;13.77;8.00;;;;;;;;;;5011966;28;20061;-73
2022/03/17 04:38:31;;;;;;;9.48;7.18;;;;;;;;;;5030188;28;20389;-73
2022/03/17 04:40:58;;;;;;;10.23;7.03;;;;;;;;;;5023754;28;20403;-73
2022/03/17 04:43:24;;;;;;;10.95;7.57;;;;;;;;;;5027400;28;20083;-72
2022/03/17 04:45:50;;;;;;;10.52;7.15;;;;;;;;;;5029333;28;20468;-72
2022/03/17 04:48:16;;;;;;;9.68;7.20;;;;;;;;;;5029143;28;20041;-73
2022/03/17 04:50:43;;;;;;;14.30;7.47;;;;;;;;;;5028908;28;20033;-72
2022/03/17 04:53:27;;;;;;;9.35;7.30;;;;;;;;;;5027896;28;20038;-72
2022/03/17 04:56:01;;;;;;;12.85;7.25;;;;;;;;;;5024617;28;20110;-72
2022/03/17 04:58:28;;;;;;;9.85;6.20;;;;;;;;;;5026529;28;20037;-71
2022/03/17 05:00:55;;;;;;;8.60;6.32;;;;;;;;;;5023799;28;20026;-72
2022/03/17 05:03:21;;;;;;;12.80;7.13;;;;;;;;;;5005992;28;20445;-72
2022/03/17 05:05:47;;;;;;;11.57;6.43;;;;;;;;;;5017251;28;20037;-72
2022/03/17 05:08:14;;;;;;;12.20;7.28;;;;;;;;;;5030674;28;20032;-72
2022/03/17 05:10:40;;;;;;;10.38;6.60;;;;;;;;;;5014648;28;20033;-72
2022/03/17 05:13:07;;;;;;;11.43;7.35;;;;;;;;;;5032856;28;20492;-73
2022/03/17 05:15:34;;;;;;;18.83;8.57;;;;;;;;;;5030152;28;20377;-74
2022/03/17 05:18:00;;;;;;;17.45;8.25;;;;;;;;;;5020604;28;20042;-73
2022/03/17 05:20:26;;;;;;;15.77;7.72;;;;;;;;;;5032283;28;20121;-72
2022/03/17 05:22:52;;;;;;;15.70;8.98;;;;;;;;;;5017981;28;20049;-73
2022/03/17 05:25:19;;;;;;;28.27;10.80;;;;;;;;;;5030411;28;20025;-72
2022/03/17 05:27:46;;;;;;;17.35;9.38;;;;;;;;;;5031418;28;20104;-72
2022/03/17 05:30:16;;;;;;;23.17;9.73;;;;;;;;;;5028081;28;20465;-73
2022/03/17 05:32:42;;;;;;;25.98;10.68;;;;;;;;;;5023906;28;20044;-72
2022/03/17 05:35:09;;;;;;;20.77;9.48;;;;;;;;;;5021757;28;20038;-71
2022/03/17 05:37:35;;;;;;;24.67;8.88;;;;;;;;;;5027494;28;20057;-71
2022/03/17 05:40:02;;;;;;;25.30;8.95;;;;;;;;;;5024480;28;20029;-72
2022/03/17 05:42:29;;;;;;;25.13;7.68;;;;;;;;;;5030222;28;20037;-71
2022/03/17 05:44:55;;;;;;;20.38;6.63;;;;;;;;;;5030478;28;20037;-70
2022/03/17 05:47:21;;;;;;;45.13;20.90;;;;;;;;;;5027195;28;20034;-71
2022/03/17 05:49:47;;;;;;;31.52;8.48;;;;;;;;;;5028703;28;20036;-71
2022/03/17 05:52:14;;;;;;;21.85;5.78;;;;;;;;;;5009660;28;20053;-71
2022/03/17 05:54:41;;;;;;;19.17;5.15;;;;;;;;;;5025554;28;20451;-71
2022/03/17 05:57:09;;;;;;;22.02;4.30;;;;;;;;;;5031115;28;20029;-71
2022/03/17 05:59:39;;;;;;;22.90;4.65;;;;;;;;;;5015852;28;20072;-70
2022/03/17 06:02:05;;;;;;;16.10;5.82;;;;;;;;;;5005154;28;20105;-70
2022/03/17 06:04:31;;;;;;;19.77;5.40;;;;;;;;;;5025994;28;20038;-71
2022/03/17 06:06:57;;;;;;;20.00;5.65;;;;;;;;;;5032366;28;20470;-72
2022/03/17 06:09:23;;;;;;;23.30;4.30;;;;;;;;;;5032231;28;20029;-72
2022/03/17 06:11:50;;;;;;;17.67;4.43;;;;;;;;;;5028262;28;20037;-72
2022/03/17 06:14:16;;;;;;;16.02;4.70;;;;;;;;;;5028620;28;20033;-72
2022/03/17 06:16:43;;;;;;;19.95;5.28;;;;;;;;;;5023832;28;20029;-74
2022/03/17 06:19:09;;;;;;;15.80;4.95;;;;;;;;;;5024443;28;20069;-71
2022/03/17 06:21:35;;;;;;;9.95;3.28;;;;;;;;;;5003785;28;20034;-72
2022/03/17 06:24:01;;;;;;;14.05;3.45;;;;;;;;;;5021532;28;20034;-70
2022/03/17 06:26:27;;;;;;;13.05;3.13;;;;;;;;;;5030969;28;20022;-72
2022/03/17 06:28:53;;;;;;;13.88;3.45;;;;;;;;;;5015489;28;20120;-72
2022/03/17 06:31:19;;;;;;;13.98;2.50;;;;;;;;;;5029660;28;20527;-70
2022/03/17 06:33:45;;;;;;;9.10;1.77;;;;;;;;;;5025597;28;20496;-70
2022/03/17 06:36:13;;;;;;;17.70;3.45;;;;;;;;;;5026755;28;20069;-69
2022/03/17 06:38:39;;;;;;;15.32;3.03;;;;;;;;;;5031678;28;20065;-71
2022/03/17 06:41:05;;;;;;;11.80;2.00;;;;;;;;;;5012495;28;20892;-72
2022/03/17 06:43:31;;;;;;;11.93;1.92;;;;;;;;;;5031086;28;20041;-71
2022/03/17 06:45:57;;;;;;;11.20;1.95;;;;;;;;;;5009428;28;20535;-72
2022/03/17 06:48:23;;;;;;;16.85;3.47;;;;;;;;;;5014226;28;20025;-72
2022/03/17 06:50:49;;;;;;;11.43;1.88;;;;;;;;;;5029325;28;20531;-71
2022/03/17 06:53:15;;;;;;;15.75;2.28;;;;;;;;;;5027406;28;20040;-71
2022/03/17 06:55:41;;;;;;;13.85;2.58;;;;;;;;;;5031544;28;20030;-69
2022/03/17 06:58:07;;;;;;;16.55;2.65;;;;;;;;;;5022447;28;20029;-70
2022/03/17 07:00:33;;;;;;;10.25;1.67;;;;;;;;;;5024690;28;20088;-71
2022/03/17 07:02:59;;;;;;;18.92;1.88;;;;;;;;;;5029267;28;20040;-70
2022/03/17 07:05:26;;;;;;;14.77;2.75;;;;;;;;;;5029110;28;20105;-71
2022/03/17 07:07:52;;;;;;;14.13;2.63;;;;;;;;;;5027840;28;20041;-71
2022/03/17 07:10:18;;;;;;;18.45;2.38;;;;;;;;;;5029508;28;20036;-71
2022/03/17 07:12:45;;;;;;;13.35;2.00;;;;;;;;;;5029626;28;20030;-71
2022/03/17 07:15:12;;;;;;;18.30;2.35;;;;;;;;;;5031072;28;20121;-71
2022/03/17 07:17:42;;;;;;;14.63;1.80;;;;;;;;;;5021950;28;20037;-72
2022/03/17 07:20:09;;;;;;;11.85;1.60;;;;;;;;;;5029085;28;20030;-72
2022/03/17 07:22:35;;;;;;;12.20;1.95;;;;;;;;;;5024479;28;20358;-72
2022/03/17 07:25:02;;;;;;;8.05;1.10;;;;;;;;;;5010693;28;20116;-72
2022/03/17 07:27:30;;;;;;;8.50;1.30;;;;;;;;;;5018922;28;20042;-71
2022/03/17 07:29:56;;;;;;;14.02;2.40;;;;;;;;;;5027210;28;20394;-72
2022/03/17 07:32:25;;;;;;;18.20;2.50;;;;;;;;;;5027812;28;20136;-71
2022/03/17 07:34:52;;;;;;;13.77;2.08;;;;;;;;;;5020806;28;20033;-72
2022/03/17 07:37:18;;;;;;;16.38;2.22;;;;;;;;;;5024643;28;20060;-72
2022/03/17 07:39:47;;;;;;;16.35;2.83;;;;;;;;;;5024638;28;20033;-73
2022/03/17 07:42:14;;;;;;;19.35;3.03;;;;;;;;;;5011788;28;20029;-72
2022/03/17 07:44:40;;;;;;;14.35;2.10;;;;;;;;;;5029588;28;20029;-72
2022/03/17 07:47:08;;;;;;;16.00;3.22;;;;;;;;;;5018893;28;20535;-72
2022/03/17 07:49:34;;;;;;;20.83;2.15;;;;;;;;;;5029253;28;20037;-72
2022/03/17 07:52:00;;;;;;;16.75;2.63;;;;;;;;;;5028224;28;20390;-72
2022/03/17 07:54:27;;;;;;;19.27;2.08;;;;;;;;;;5029252;28;20029;-72
2022/03/17 07:56:54;;;;;;;19.33;2.35;;;;;;;;;;5028656;28;20022;-73
2022/03/17 07:59:20;;;;;;;12.85;2.30;;;;;;;;;;5028092;28;20033;-72
2022/03/17 08:01:46;;;;;;;21.80;2.92;;;;;;;;;;5026809;28;20033;-73
2022/03/17 08:04:12;;;;;;;17.98;2.50;;;;;;;;;;5030387;28;20029;-72
2022/03/17 08:06:38;;;;;;;20.55;2.92;;;;;;;;;;5028192;28;20257;-73
2022/03/17 08:09:04;;;;;;;18.52;1.83;;;;;;;;;;5015527;28;20034;-72
2022/03/17 08:11:31;;;;;;;13.07;2.53;;;;;;;;;;5022085;28;20388;-73
2022/03/17 08:13:57;;;;;;;24.35;2.45;;;;;;;;;;5026149;28;20036;-73
2022/03/17 08:16:23;;;;;;;18.20;2.08;;;;;;;;;;5031061;28;20021;-72
2022/03/17 08:18:49;;;;;;;29.95;3.20;;;;;;;;;;5028685;28;20131;-72
2022/03/17 08:21:16;;;;;;;17.05;1.70;;;;;;;;;;5012356;28;20524;-73
2022/03/17 08:23:42;;;;;;;13.65;1.83;;;;;;;;;;5029843;28;20026;-73
2022/03/17 08:26:08;;;;;;;14.95;2.10;;;;;;;;;;5026162;28;20185;-72
2022/03/17 08:28:35;;;;;;;17.25;2.53;;;;;;;;;;5030957;28;20048;-72
2022/03/17 08:31:01;;;;;;;14.35;3.50;;;;;;;;;;5029906;28;20029;-73
2022/03/17 08:33:27;;;;;;;20.30;2.35;;;;;;;;;;5030411;28;20026;-73
2022/03/17 08:35:53;;;;;;;16.17;2.72;;;;;;;;;;5027522;28;20100;-74
2022/03/17 08:38:20;;;;;;;17.80;2.42;;;;;;;;;;5033502;28;20046;-73
2022/03/17 08:40:46;;;;;;;21.35;2.17;;;;;;;;;;5032205;28;20116;-73
2022/03/17 08:43:12;;;;;;;14.05;2.75;;;;;;;;;;5034602;28;20044;-73
2022/03/17 08:51:10;;;;;;;15.77;3.10;;;;;;;;;;5020005;28;20182;-73
2022/03/17 08:53:36;;;;;;;15.80;2.25;;;;;;;;;;5030989;28;20108;-73
2022/03/17 08:56:02;;;;;;;19.83;3.50;;;;;;;;;;5034236;28;20033;-73
2022/03/17 08:58:29;;;;;;;13.02;1.77;;;;;;;;;;5034422;28;20045;-73
2022/03/17 09:00:55;;;;;;;15.32;1.92;;;;;;;;;;5032523;28;20038;-73
2022/03/17 09:03:21;;;;;;;23.42;2.80;;;;;;;;;;5034257;28;20112;-74
2022/03/17 09:05:47;;;;;;;19.20;2.22;;;;;;;;;;5030513;28;20109;-74
2022/03/17 09:08:13;;;;;;;18.15;2.00;;;;;;;;;;5014871;28;20038;-74
2022/03/17 09:10:40;;;;;;;10.40;1.80;;;;;;;;;;5031774;28;20037;-74
2022/03/17 09:13:07;;;;;;;17.00;2.85;;;;;;;;;;5031877;28;20033;-73
2022/03/17 09:15:34;;;;;;;12.85;2.53;;;;;;;;;;5034567;28;20049;-73
2022/03/17 09:18:00;;;;;;;11.50;2.97;;;;;;;;;;5033707;28;20042;-74
2022/03/17 09:20:26;;;;;;;22.23;2.67;;;;;;;;;;5032060;28;20029;-73
2022/03/17 09:22:52;;;;;;;12.35;2.10;;;;;;;;;;5015337;28;20076;-74
2022/03/17 09:25:23;;;;;;;13.73;2.10;;;;;;;;;;5031572;28;20488;-74
2022/03/17 09:27:50;;;;;;;16.45;3.03;;;;;;;;;;5031425;28;20476;-73
2022/03/17 09:30:16;;;;;;;9.98;2.22;;;;;;;;;;5029709;28;20489;-73
2022/03/17 09:32:44;;;;;;;13.25;2.40;;;;;;;;;;5016095;28;20034;-74
2022/03/17 09:35:11;;;;;;;15.25;1.77;;;;;;;;;;5032374;28;20112;-74
2022/03/17 09:37:37;;;;;;;10.80;1.70;;;;;;;;;;5033598;28;20439;-73
2022/03/17 09:40:04;;;;;;;11.77;1.92;;;;;;;;;;5034079;28;20029;-74
2022/03/17 09:42:30;;;;;;;13.52;2.35;;;;;;;;;;5027490;28;20053;-74
2022/03/17 09:44:56;;;;;;;11.30;2.47;;;;;;;;;;5033215;28;20619;-73
2022/03/17 09:47:24;;;;;;;14.10;2.70;;;;;;;;;;5022265;28;20501;-74
2022/03/17 09:49:53;;;;;;;11.90;1.42;;;;;;;;;;5016717;28;20026;-74
2022/03/17 09:52:20;;;;;;;9.25;2.70;;;;;;;;;;5013094;28;20469;-74
2022/03/17 09:54:47;;;;;;;18.55;2.85;;;;;;;;;;5015635;28;20052;-74
2022/03/17 09:57:16;;;;;;;15.20;2.45;;;;;;;;;;5026740;28;20040;-74
2022/03/17 09:59:43;;;;;;;12.60;2.10;;;;;;;;;;5032709;28;20025;-74
2022/03/17 10:02:11;;;;;;;22.10;2.50;;;;;;;;;;5031145;28;20048;-73
2022/03/17 10:04:43;;;;;;;8.65;2.10;;;;;;;;;;5028208;28;20099;-74
2022/03/17 10:07:09;;;;;;;11.93;1.92;;;;;;;;;;5029022;28;20389;-74
2022/03/17 10:09:35;;;;;;;13.43;1.95;;;;;;;;;;5032423;28;20030;-74
2022/03/17 10:12:03;;;;;;;12.02;2.45;;;;;;;;;;5032537;28;20445;-74
2022/03/17 10:14:58;;;;;;;14.20;2.03;;;;;;;;;;5029341;28;21766;-73
2022/03/17 10:17:28;;;;;;;15.43;2.33;;;;;;;;;;5011971;28;20073;-73
2022/03/17 10:20:10;;;;;;;16.15;2.92;;;;;;;;;;5031230;28;20040;-73
2022/03/17 10:22:41;;;;;;;12.63;2.40;;;;;;;;;;5030621;28;20029;-74
2022/03/17 10:25:07;;;;;;;14.50;2.13;;;;;;;;;;5028999;28;20025;-73
2022/03/17 10:27:37;;;;;;;11.40;2.53;;;;;;;;;;5031173;28;20556;-73
2022/03/17 10:30:06;;;;;;;13.98;2.60;;;;;;;;;;5013300;28;20030;-74
2022/03/17 10:32:32;;;;;;;18.85;2.90;;;;;;;;;;5010545;28;20499;-74
2022/03/17 10:34:58;;;;;;;13.30;1.88;;;;;;;;;;5032391;28;20120;-74
2022/03/17 10:37:25;;;;;;;12.65;2.45;;;;;;;;;;5009495;28;20053;-73
2022/03/17 10:39:51;;;;;;;16.42;2.85;;;;;;;;;;5030606;28;20112;-73
2022/03/17 10:42:19;;;;;;;9.98;1.80;;;;;;;;;;5014788;28;20083;-74
2022/03/17 10:44:52;;;;;;;11.38;1.77;;;;;;;;;;5009414;28;20025;-73
2022/03/17 10:47:27;;;;;;;12.18;2.10;;;;;;;;;;5009842;28;20037;-73
2022/03/17 10:50:02;;;;;;;15.70;2.67;;;;;;;;;;5032144;28;20468;-73
2022/03/17 10:52:49;;;;;;;11.15;2.17;;;;;;;;;;5032782;28;20101;-74
2022/03/17 10:55:16;;;;;;;11.82;2.35;;;;;;;;;;5029366;28;20496;-74
2022/03/17 10:57:42;;;;;;;12.13;2.75;;;;;;;;;;5013710;28;20053;-74
2022/03/17 11:00:19;;;;;;;15.07;2.55;;;;;;;;;;5031417;28;20548;-73
2022/03/17 11:02:48;;;;;;;12.50;2.42;;;;;;;;;;5031399;28;20025;-74
2022/03/17 11:05:14;;;;;;;18.08;2.55;;;;;;;;;;5029023;28;20029;-74
2022/03/17 11:07:40;;;;;;;17.90;2.47;;;;;;;;;;5015241;28;20042;-74
2022/03/17 11:10:07;;;;;;;21.40;2.85;;;;;;;;;;5029528;28;20083;-73
2022/03/17 11:12:34;;;;;;;17.35;2.83;;;;;;;;;;5032286;28;20124;-73
2022/03/17 11:15:01;;;;;;;18.30;3.55;;;;;;;;;;5029859;28;20384;-72
2022/03/17 11:17:31;;;;;;;14.70;2.10;;;;;;;;;;5027550;28;20518;-73
2022/03/17 11:20:04;;;;;;;13.38;2.38;;;;;;;;;;5022267;28;20026;-73
2022/03/17 11:22:32;;;;;;;13.18;1.98;;;;;;;;;;5031628;28;20034;-73
2022/03/17 11:25:34;;;;;;;10.88;2.15;;;;;;;;;;5023878;28;20045;-73
2022/03/17 11:28:01;;;;;;;15.52;2.17;;;;;;;;;;4980420;28;20042;-73
2022/03/17 11:30:32;;;;;;;15.80;2.15;;;;;;;;;;5014325;28;20032;-73
2022/03/17 11:32:58;;;;;;;13.98;1.98;;;;;;;;;;5029632;28;20053;-73
2022/03/17 11:35:29;;;;;;;12.98;1.98;;;;;;;;;;5022894;28;20029;-73
2022/03/17 11:38:26;;;;;;;16.65;2.63;;;;;;;;;;5031242;28;20155;-73
2022/03/17 11:41:09;;;;;;;19.50;1.85;;;;;;;;;;5014040;28;20103;-73
2022/03/17 11:43:39;;;;;;;13.85;1.92;;;;;;;;;;5028521;28;20492;-73
2022/03/17 11:46:11;;;;;;;16.17;3.40;;;;;;;;;;5031384;28;20037;-73
2022/03/17 11:48:38;;;;;;;13.18;1.80;;;;;;;;;;5031043;28;20052;-73
2022/03/17 11:51:05;;;;;;;10.98;2.33;;;;;;;;;;5030645;28;20026;-73
2022/03/17 11:53:45;;;;;;;14.75;2.33;;;;;;;;;;5026329;28;20040;-73
2022/03/17 11:56:17;;;;;;;14.98;2.78;;;;;;;;;;5017626;28;20472;-73
2022/03/17 11:58:46;;;;;;;16.33;2.85;;;;;;;;;;5018845;28;20032;-73
2022/03/17 12:01:27;;;;;;;12.20;2.30;;;;;;;;;;5030870;28;20087;-73
2022/03/17 12:03:57;;;;;;;16.48;1.90;;;;;;;;;;5029944;28;20080;-73
2022/03/17 12:06:24;;;;;;;14.15;2.42;;;;;;;;;;5031159;28;20024;-73
2022/03/17 12:08:52;;;;;;;14.38;3.45;;;;;;;;;;5022776;28;20064;-73
2022/03/17 12:11:25;;;;;;;11.75;2.13;;;;;;;;;;5010758;28;20037;-73
2022/03/17 12:14:09;;;;;;;14.65;2.20;;;;;;;;;;5022266;28;20524;-73
2022/03/17 12:16:40;;;;;;;15.55;2.47;;;;;;;;;;5031137;28;20483;-73
2022/03/17 12:19:06;;;;;;;15.45;2.47;;;;;;;;;;5006241;28;20117;-74
2022/03/17 12:21:53;;;;;;;14.93;2.75;;;;;;;;;;5011188;28;20092;-73
2022/03/17 12:24:40;;;;;;;18.85;2.38;;;;;;;;;;5018930;28;20064;-73
2022/03/17 12:27:29;;;;;;;15.68;2.40;;;;;;;;;;5030049;28;20033;-74
2022/03/17 12:29:58;;;;;;;10.35;2.03;;;;;;;;;;5028611;28;20033;-73
2022/03/17 12:32:24;;;;;;;10.65;2.10;;;;;;;;;;5031106;28;20411;-73
2022/03/17 12:34:51;;;;;;;12.02;2.53;;;;;;;;;;5028958;28;20373;-73
2022/03/17 12:37:18;;;;;;;13.85;1.92;;;;;;;;;;5021389;28;20050;-73
2022/03/17 12:39:48;;;;;;;12.95;2.00;;;;;;;;;;5021232;28;20500;-73
2022/03/17 12:42:19;;;;;;;12.98;2.40;;;;;;;;;;5028595;28;20056;-73
2022/03/17 12:45:04;;;;;;;15.45;2.03;;;;;;;;;;5029767;28;20384;-73
2022/03/17 12:47:30;;;;;;;9.77;1.70;;;;;;;;;;5017485;28;20050;-73
2022/03/17 12:49:57;;;;;;;10.20;2.08;;;;;;;;;;5026334;28;20040;-73
2022/03/17 12:52:25;;;;;;;9.27;1.95;;;;;;;;;;5030033;28;20018;-74
2022/03/17 12:54:55;;;;;;;10.73;1.40;;;;;;;;;;5006297;28;20030;-72
2022/03/17 12:57:22;;;;;;;7.95;1.30;;;;;;;;;;5030666;28;20040;-73
2022/03/17 12:59:48;;;;;;;9.40;1.40;;;;;;;;;;5017305;28;20034;-73
2022/03/17 13:02:21;;;;;;;12.38;2.40;;;;;;;;;;5027391;28;20052;-73
2022/03/17 13:04:49;;;;;;;14.00;1.92;;;;;;;;;;5030554;28;20037;-73
2022/03/17 13:07:15;;;;;;;9.00;1.60;;;;;;;;;;5029872;28;20079;-72
2022/03/17 13:09:42;;;;;;;12.27;1.45;;;;;;;;;;5023586;28;20155;-72
2022/03/17 13:14:55;;;;;;;8.77;1.33;;;;;;;;;;5030241;28;20064;-73
2022/03/17 13:17:32;;;;;;;6.72;1.98;;;;;;;;;;5031034;28;20029;-72
2022/03/17 13:19:58;;;;;;;10.95;2.05;;;;;;;;;;5002905;28;20045;-73
2022/03/17 13:22:34;;;;;;;11.70;1.85;;;;;;;;;;5021245;28;20029;-72
2022/03/17 13:25:10;;;;;;;9.80;1.70;;;;;;;;;;5006119;28;20084;-73
2022/03/17 13:27:38;;;;;;;11.00;2.00;;;;;;;;;;5014453;28;20497;-73
2022/03/17 13:30:10;;;;;;;11.25;1.65;;;;;;;;;;5023846;28;20547;-72
2022/03/17 13:32:36;;;;;;;8.02;1.73;;;;;;;;;;5028568;28;20040;-73
2022/03/17 13:35:03;;;;;;;9.65;2.13;;;;;;;;;;5019813;28;20037;-73
2022/03/17 13:37:33;;;;;;;11.13;1.52;;;;;;;;;;5029025;28;20053;-72
2022/03/17 13:40:07;;;;;;;9.77;1.40;;;;;;;;;;5025734;28;20037;-73
2022/03/17 13:42:33;;;;;;;8.75;1.42;;;;;;;;;;5030834;28;20030;-72
2022/03/17 13:45:00;;;;;;;6.93;1.27;;;;;;;;;;5015233;28;20030;-73
2022/03/17 13:47:30;;;;;;;7.15;1.83;;;;;;;;;;5033991;28;20539;-74
2022/03/17 13:50:12;;;;;;;9.73;1.27;;;;;;;;;;5015698;28;20033;-73
2022/03/17 13:52:39;;;;;;;10.80;2.25;;;;;;;;;;5032764;28;20116;-73
2022/03/17 13:55:16;;;;;;;8.35;1.55;;;;;;;;;;5028492;28;20122;-73
2022/03/17 13:57:43;;;;;;;8.38;1.85;;;;;;;;;;5032763;28;20042;-72
2022/03/17 14:00:14;;;;;;;8.63;1.50;;;;;;;;;;5033357;28;20029;-72
2022/03/17 14:02:41;;;;;;;10.40;1.83;;;;;;;;;;5032436;28;20378;-73
2022/03/17 14:05:12;;;;;;;9.55;1.73;;;;;;;;;;5032348;28;20397;-73
2022/03/17 14:07:38;;;;;;;5.57;1.40;;;;;;;;;;5033436;28;20476;-73
2022/03/17 14:10:05;;;;;;;7.95;1.40;;;;;;;;;;5015618;28;20034;-74
2022/03/17 14:12:31;;;;;;;9.43;1.63;;;;;;;;;;5031869;28;20038;-73
2022/03/17 14:14:57;;;;;;;13.88;1.63;;;;;;;;;;5007835;28;20030;-74
2022/03/17 14:17:24;;;;;;;7.38;1.10;;;;;;;;;;5030923;28;20034;-75
2022/03/17 14:19:50;;;;;;;11.00;1.13;;;;;;;;;;5015179;28;20088;-74
2022/03/17 14:25:00;;;;;;;9.15;1.40;;;;;;;;;;5012476;28;20091;-72
2022/03/17 14:27:27;;;;;;;9.07;1.38;;;;;;;;;;5031022;28;20045;-72
2022/03/17 14:29:53;;;;;;;10.25;1.75;;;;;;;;;;5032015;28;20053;-72
2022/03/17 14:32:19;;;;;;;9.43;1.80;;;;;;;;;;5031833;28;20030;-73
2022/03/17 14:34:47;;;;;;;6.88;1.33;;;;;;;;;;5014048;28;20030;-73
2022/03/17 14:37:13;;;;;;;5.60;1.58;;;;;;;;;;5001852;28;20125;-73
2022/03/17 14:39:43;;;;;;;7.13;1.27;;;;;;;;;;5011933;28;20048;-73
2022/03/17 14:42:12;;;;;;;6.30;1.77;;;;;;;;;;5031593;28;20029;-74
2022/03/17 14:44:39;;;;;;;6.50;0.93;;;;;;;;;;5011874;28;20033;-74
2022/03/17 14:47:05;;;;;;;6.93;1.52;;;;;;;;;;5028906;28;20477;-74
2022/03/17 14:49:31;;;;;;;6.57;1.00;;;;;;;;;;5030779;28;20044;-73
2022/03/17 14:51:57;;;;;;;8.65;1.80;;;;;;;;;;5030992;28;20108;-74
2022/03/17 14:54:23;;;;;;;5.57;0.80;;;;;;;;;;5031952;28;20032;-73